Time;durP1;ratioP1;P1;durP2;ratioP2;P2;SDS_P1;SDS_P2;PMS_P1;PMS_P2;Temp;Humidity;BMP_temperature;BMP_pressure;BME280_temperature;BME280_humidity;BME280_pressure;Samples;Min_cycle;Max_cycle;Signal;HPM_P1;HPM_P2
2024/01/10 00:02:19;;;;;;;15.18;10.95;;;-4.10;99.90;;;;;;5069583;28;20079;-63
2024/01/10 00:04:46;;;;;;;14.60;12.20;;;-4.20;99.90;;;;;;5072650;28;20052;-62
2024/01/10 00:07:12;;;;;;;16.20;11.20;;;-4.20;99.90;;;;;;5071846;28;20376;-62
2024/01/10 00:09:38;;;;;;;15.38;12.15;;;-4.20;99.90;;;;;;5072638;28;20429;-64
2024/01/10 00:12:06;;;;;;;15.13;10.10;;;-4.20;99.90;;;;;;5072636;28;20048;-63
2024/01/10 00:14:33;;;;;;;15.90;10.27;;;-4.20;99.90;;;;;;5072716;28;20045;-62
2024/01/10 00:16:59;;;;;;;16.50;12.45;;;-4.20;99.90;;;;;;5072659;28;20676;-62
2024/01/10 00:19:25;;;;;;;15.18;11.15;;;-4.10;99.90;;;;;;5071262;28;20040;-63
2024/01/10 00:21:52;;;;;;;14.43;10.05;;;-4.20;99.90;;;;;;5072203;28;20051;-63
2024/01/10 00:24:18;;;;;;;15.20;10.25;;;-4.10;99.90;;;;;;5071992;28;20063;-63
2024/01/10 00:26:47;;;;;;;16.50;12.38;;;-4.20;99.90;;;;;;5072201;28;20044;-63
2024/01/10 00:29:13;;;;;;;13.60;10.20;;;-4.10;99.90;;;;;;5072198;28;20049;-63
2024/01/10 00:31:41;;;;;;;17.95;10.30;;;-4.20;99.90;;;;;;5071138;28;20400;-64
2024/01/10 00:34:07;;;;;;;16.58;10.88;;;-4.20;99.90;;;;;;5072098;28;20064;-62
2024/01/10 00:36:33;;;;;;;14.60;9.82;;;-4.20;99.90;;;;;;5072381;28;20049;-63
2024/01/10 00:39:00;;;;;;;14.70;10.55;;;-4.30;99.90;;;;;;5072352;28;20045;-63
2024/01/10 00:41:26;;;;;;;18.17;11.32;;;-4.20;99.90;;;;;;5071571;28;20499;-62
2024/01/10 00:43:52;;;;;;;15.65;11.65;;;-4.20;99.90;;;;;;5072099;28;20110;-63
2024/01/10 00:46:20;;;;;;;15.52;10.07;;;-4.20;99.90;;;;;;5053114;28;20063;-62
2024/01/10 00:48:46;;;;;;;12.48;8.95;;;-4.20;99.90;;;;;;5071445;28;20059;-62
2024/01/10 00:51:13;;;;;;;14.93;9.40;;;-4.20;99.90;;;;;;5072388;28;20105;-63
2024/01/10 00:53:39;;;;;;;15.32;9.40;;;-4.20;99.90;;;;;;5072659;28;20362;-62
2024/01/10 00:56:06;;;;;;;15.23;9.38;;;-4.20;99.90;;;;;;5072129;28;20063;-63
2024/01/10 00:58:32;;;;;;;14.05;9.43;;;-4.20;99.90;;;;;;5072021;28;20530;-61
2024/01/10 01:00:59;;;;;;;13.43;9.50;;;-4.20;99.90;;;;;;5072343;28;20059;-62
2024/01/10 01:03:25;;;;;;;15.00;10.73;;;-4.10;99.90;;;;;;5071733;28;20599;-62
2024/01/10 01:05:51;;;;;;;15.00;10.35;;;-4.20;99.90;;;;;;5071620;28;20059;-62
2024/01/10 01:08:17;;;;;;;15.20;9.93;;;-4.20;99.90;;;;;;5072193;28;20052;-63
2024/01/10 01:10:44;;;;;;;;;;;-4.20;99.90;;;;;;5072474;28;20063;-62
2024/01/10 01:13:10;;;;;;;14.35;9.85;;;-4.30;99.90;;;;;;5070699;28;20030;-62
2024/01/10 01:15:36;;;;;;;;;;;-4.40;99.90;;;;;;5070661;28;20345;-63
2024/01/10 01:18:02;;;;;;;14.35;10.73;;;-4.40;99.90;;;;;;5072258;28;20068;-63
2024/01/10 01:20:29;;;;;;;;;;;-4.40;99.90;;;;;;5070985;28;20117;-62
2024/01/10 01:22:55;;;;;;;15.50;9.88;;;-4.30;99.90;;;;;;5053726;28;19931;-63
2024/01/10 01:25:21;;;;;;;14.63;10.13;;;-4.40;99.90;;;;;;5069725;28;20059;-62
2024/01/10 01:27:47;;;;;;;;;;;-4.40;99.90;;;;;;5054060;28;20407;-63
2024/01/10 01:30:14;;;;;;;14.15;10.45;;;-4.40;99.90;;;;;;5070465;28;19926;-63
2024/01/10 01:32:40;;;;;;;13.98;10.00;;;-4.40;99.90;;;;;;5070018;28;20063;-64
2024/01/10 01:35:06;;;;;;;15.27;11.13;;;-4.40;99.90;;;;;;5069859;28;20052;-64
2024/01/10 01:37:33;;;;;;;14.13;10.15;;;-4.40;99.90;;;;;;5069848;28;20068;-63
2024/01/10 01:39:59;;;;;;;;;;;-4.30;99.90;;;;;;5070350;28;20135;-64
2024/01/10 01:42:25;;;;;;;15.45;9.85;;;-4.30;99.90;;;;;;5069921;28;19989;-63
2024/01/10 01:44:52;;;;;;;;;;;-4.30;99.90;;;;;;5070873;28;20051;-61
2024/01/10 01:47:18;;;;;;;14.30;10.32;;;-4.30;99.90;;;;;;5069826;28;19927;-62
2024/01/10 01:49:44;;;;;;;14.00;10.00;;;-4.40;99.90;;;;;;5071092;28;20075;-62
2024/01/10 01:52:11;;;;;;;15.48;11.93;;;-4.40;99.90;;;;;;5070715;28;20107;-62
2024/01/10 01:54:37;;;;;;;;;;;-4.30;99.90;;;;;;5070901;28;20063;-63
2024/01/10 01:57:04;;;;;;;13.00;8.95;;;-4.40;99.90;;;;;;5070608;28;19921;-62
2024/01/10 01:59:30;;;;;;;15.25;9.00;;;-4.40;99.90;;;;;;5069660;28;20123;-64
2024/01/10 02:02:00;;;;;;;13.95;10.38;;;-4.40;99.90;;;;;;5069571;28;20049;-63
2024/01/10 02:04:28;;;;;;;14.18;9.90;;;-4.40;99.90;;;;;;5069158;28;20044;-63
2024/01/10 02:06:54;;;;;;;13.65;9.23;;;-4.40;99.90;;;;;;5069550;28;20368;-62
2024/01/10 02:09:20;;;;;;;14.00;9.90;;;-4.40;99.90;;;;;;5069340;28;20054;-63
2024/01/10 02:11:47;;;;;;;17.65;10.50;;;-4.40;99.90;;;;;;5070354;28;20491;-63
2024/01/10 02:14:14;;;;;;;15.55;10.30;;;-4.50;99.90;;;;;;5069194;28;20048;-63
2024/01/10 02:16:40;;;;;;;16.02;11.02;;;-4.40;99.90;;;;;;5069275;28;20086;-62
2024/01/10 02:19:20;;;;;;;17.20;9.75;;;-4.40;99.90;;;;;;5070346;28;20504;-62
2024/01/10 02:21:47;;;;;;;16.50;10.60;;;-4.40;99.90;;;;;;5070211;28;20133;-62
2024/01/10 02:24:13;;;;;;;14.63;10.45;;;-4.50;99.90;;;;;;5068871;28;20056;-63
2024/01/10 02:26:40;;;;;;;14.93;9.75;;;-4.50;99.90;;;;;;5068369;28;20515;-64
2024/01/10 02:29:06;;;;;;;15.90;11.38;;;-4.50;99.90;;;;;;5069594;28;20060;-62
2024/01/10 02:31:32;;;;;;;14.32;9.75;;;-4.50;99.90;;;;;;5070560;28;20048;-63
2024/01/10 02:33:59;;;;;;;14.02;10.02;;;-4.60;99.90;;;;;;5068666;28;20056;-63
2024/01/10 02:36:25;;;;;;;15.05;10.85;;;-4.60;99.90;;;;;;5068799;28;20079;-63
2024/01/10 02:38:52;;;;;;;15.40;9.65;;;-4.60;99.90;;;;;;5069375;28;20098;-63
2024/01/10 02:41:18;;;;;;;14.82;10.40;;;-4.60;99.90;;;;;;5069720;28;20044;-62
2024/01/10 02:43:44;;;;;;;;;;;-4.60;99.90;;;;;;5069788;28;20044;-63
2024/01/10 02:46:10;;;;;;;15.52;9.50;;;-4.50;99.90;;;;;;5069632;28;19924;-63
2024/01/10 02:48:37;;;;;;;15.20;10.43;;;-4.50;99.90;;;;;;5069005;28;20048;-63
2024/01/10 02:51:04;;;;;;;15.32;9.70;;;-4.60;99.90;;;;;;5069875;28;20045;-63
2024/01/10 02:53:31;;;;;;;17.48;12.65;;;-4.50;99.90;;;;;;5068349;28;20052;-63
2024/01/10 02:55:58;;;;;;;17.98;10.65;;;-4.60;99.90;;;;;;5068586;28;20059;-63
2024/01/10 02:58:25;;;;;;;14.07;10.77;;;-4.60;99.90;;;;;;5068759;28;20044;-62
2024/01/10 03:00:51;;;;;;;16.15;11.00;;;-4.40;99.90;;;;;;5068488;28;20048;-62
2024/01/10 03:03:17;;;;;;;15.73;10.52;;;-4.60;99.90;;;;;;5069601;28;20049;-63
2024/01/10 03:05:44;;;;;;;15.20;10.77;;;-4.60;99.90;;;;;;5069396;28;20048;-62
2024/01/10 03:08:10;;;;;;;;;;;-4.50;99.90;;;;;;5069137;28;20049;-61
2024/01/10 03:10:36;;;;;;;18.08;10.13;;;-4.60;99.90;;;;;;5068817;28;19920;-62
2024/01/10 03:13:03;;;;;;;14.43;9.75;;;-4.60;99.90;;;;;;5069462;28;20048;-62
2024/01/10 03:15:30;;;;;;;;;;;-4.70;99.90;;;;;;5068534;28;20060;-62
2024/01/10 03:17:57;;;;;;;12.95;8.88;;;-4.70;99.90;;;;;;5068759;28;20389;-62
2024/01/10 03:20:23;;;;;;;15.38;10.05;;;-4.50;99.90;;;;;;5068048;28;20048;-62
2024/01/10 03:22:49;;;;;;;16.52;13.23;;;-4.70;99.90;;;;;;5069226;28;20213;-63
2024/01/10 03:25:15;;;;;;;15.10;9.57;;;-4.60;99.90;;;;;;5067953;28;20348;-63
2024/01/10 03:27:42;;;;;;;;;;;-4.60;99.90;;;;;;5069791;28;20052;-63
2024/01/10 03:30:08;;;;;;;15.65;9.55;;;-4.60;99.90;;;;;;5085307;28;19924;-63
2024/01/10 03:32:35;;;;;;;15.82;9.90;;;-4.60;99.90;;;;;;5068640;28;20072;-63
2024/01/10 03:35:01;;;;;;;13.88;10.50;;;-4.60;99.90;;;;;;5068197;28;20358;-62
2024/01/10 03:37:27;;;;;;;15.45;10.98;;;-4.70;99.90;;;;;;5069042;28;20574;-63
2024/01/10 03:39:53;;;;;;;15.00;9.82;;;-4.50;99.90;;;;;;5072374;28;20045;-63
2024/01/10 03:42:20;;;;;;;15.63;10.00;;;-4.70;99.90;;;;;;5072963;28;20057;-63
2024/01/10 03:44:46;;;;;;;15.15;9.73;;;-4.70;99.90;;;;;;5072031;28;20071;-63
2024/01/10 03:47:13;;;;;;;13.35;9.07;;;-4.70;99.90;;;;;;5071973;28;20049;-63
2024/01/10 03:49:39;;;;;;;13.70;8.75;;;-4.70;99.90;;;;;;5072632;28;20513;-63
2024/01/10 03:52:05;;;;;;;12.95;8.88;;;-4.70;99.90;;;;;;5071702;28;20106;-61
2024/01/10 03:54:31;;;;;;;;;;;-4.70;99.90;;;;;;5071903;28;20044;-63
2024/01/10 03:56:58;;;;;;;15.30;9.32;;;-4.70;99.90;;;;;;5072910;28;20261;-62
2024/01/10 03:59:24;;;;;;;12.75;9.18;;;-4.70;99.90;;;;;;5072210;28;20045;-63
2024/01/10 04:01:50;;;;;;;12.93;9.68;;;-4.60;99.90;;;;;;5072842;28;20098;-63
2024/01/10 04:04:16;;;;;;;14.63;8.48;;;-4.70;99.90;;;;;;5071396;28;20060;-63
2024/01/10 04:06:43;;;;;;;14.25;10.02;;;-4.70;99.90;;;;;;5071836;28;20052;-62
2024/01/10 04:09:10;;;;;;;13.80;8.50;;;-4.70;99.90;;;;;;5071492;28;20059;-63
2024/01/10 04:11:36;;;;;;;15.98;10.82;;;-4.60;99.90;;;;;;5072966;28;20044;-63
2024/01/10 04:14:03;;;;;;;16.58;10.85;;;-4.60;99.90;;;;;;5071166;28;20048;-63
2024/01/10 04:16:29;;;;;;;13.13;9.02;;;-4.70;99.90;;;;;;5071944;28;20514;-62
2024/01/10 04:18:56;;;;;;;12.43;8.65;;;-4.70;99.90;;;;;;5072392;28;20358;-63
2024/01/10 04:21:22;;;;;;;14.40;9.55;;;-4.70;99.90;;;;;;5071022;28;20052;-63
2024/01/10 04:23:48;;;;;;;13.82;9.32;;;-4.70;99.90;;;;;;5070852;28;20053;-62
2024/01/10 04:26:14;;;;;;;13.48;9.35;;;-4.70;99.90;;;;;;5071519;28;20067;-63
2024/01/10 04:28:41;;;;;;;13.20;8.50;;;-4.70;99.90;;;;;;5071387;28;20059;-62
2024/01/10 04:31:07;;;;;;;12.95;8.93;;;-4.50;99.90;;;;;;5071426;28;20055;-62
2024/01/10 04:33:33;;;;;;;14.10;9.77;;;-4.70;99.90;;;;;;5072446;28;20320;-62
2024/01/10 04:36:00;;;;;;;;;;;-4.60;99.90;;;;;;5071379;28;20048;-63
2024/01/10 04:38:26;;;;;;;13.73;8.65;;;-4.60;99.90;;;;;;5104860;28;19924;-63
2024/01/10 04:40:53;;;;;;;13.43;9.00;;;-4.70;99.90;;;;;;5072367;28;20068;-63
2024/01/10 04:43:19;;;;;;;12.90;9.43;;;-4.70;99.90;;;;;;5072084;28;20048;-63
2024/01/10 04:45:46;;;;;;;13.32;8.93;;;-4.60;99.90;;;;;;5071961;28;20059;-62
2024/01/10 04:48:12;;;;;;;14.10;10.10;;;-4.60;99.90;;;;;;5071664;28;20151;-62
2024/01/10 04:50:38;;;;;;;;;;;-4.60;99.90;;;;;;5070359;28;20052;-62
2024/01/10 04:53:04;;;;;;;13.82;10.68;;;-4.60;99.90;;;;;;5070602;28;19932;-62
2024/01/10 04:55:31;;;;;;;12.98;8.38;;;-4.60;99.90;;;;;;5070149;28;20056;-62
2024/01/10 04:57:57;;;;;;;13.45;8.27;;;-4.60;99.90;;;;;;5071139;28;20067;-62
2024/01/10 05:00:23;;;;;;;12.02;8.52;;;-4.60;99.90;;;;;;5071875;28;20052;-62
2024/01/10 05:02:49;;;;;;;14.25;9.32;;;-4.60;99.90;;;;;;5070751;28;20052;-63
2024/01/10 05:05:18;;;;;;;12.63;8.60;;;-4.50;99.90;;;;;;5070431;28;20045;-63
2024/01/10 05:07:44;;;;;;;14.80;9.68;;;-4.40;99.90;;;;;;5070578;28;20052;-63
2024/01/10 05:10:10;;;;;;;12.55;9.30;;;-4.40;99.90;;;;;;5070782;28;20151;-63
2024/01/10 05:12:37;;;;;;;13.13;8.27;;;-4.50;99.90;;;;;;5071804;28;20131;-62
2024/01/10 05:15:04;;;;;;;11.95;8.43;;;-4.40;99.90;;;;;;5070054;28;20101;-61
2024/01/10 05:17:31;;;;;;;13.50;9.73;;;-4.50;99.90;;;;;;5071943;28;20071;-61
2024/01/10 05:19:57;;;;;;;;;;;-4.50;99.90;;;;;;5070845;28;20059;-62
2024/01/10 05:22:23;;;;;;;11.93;8.57;;;-4.40;99.90;;;;;;5071073;28;19924;-62
2024/01/10 05:24:49;;;;;;;14.43;9.98;;;-4.40;99.90;;;;;;5070980;28;20044;-60
2024/01/10 05:27:16;;;;;;;12.60;8.82;;;-4.50;99.90;;;;;;5071250;28;20056;-61
2024/01/10 05:29:42;;;;;;;;;;;-4.50;99.90;;;;;;5071622;28;20380;-62
2024/01/10 05:32:08;;;;;;;14.18;9.05;;;-4.50;99.90;;;;;;5069927;28;19920;-62
2024/01/10 05:34:34;;;;;;;14.27;9.32;;;-4.40;99.90;;;;;;5070888;28;20044;-62
2024/01/10 05:37:01;;;;;;;12.52;9.48;;;-4.40;99.90;;;;;;5069845;28;20545;-63
2024/01/10 05:39:27;;;;;;;13.82;8.93;;;-4.30;99.90;;;;;;5069490;28;20476;-62
2024/01/10 05:41:53;;;;;;;13.63;8.68;;;-4.40;99.90;;;;;;5070602;28;20049;-62
2024/01/10 05:44:20;;;;;;;14.63;10.07;;;-4.40;99.90;;;;;;5069812;28;20052;-62
2024/01/10 05:46:47;;;;;;;12.60;8.57;;;-4.40;99.90;;;;;;5070635;28;20449;-61
2024/01/10 05:49:14;;;;;;;14.38;8.95;;;-4.40;99.90;;;;;;5069537;28;20055;-62
2024/01/10 05:51:40;;;;;;;13.13;8.95;;;-4.40;99.90;;;;;;5069149;28;20048;-62
2024/01/10 05:54:07;;;;;;;14.70;10.15;;;-4.40;99.90;;;;;;5069340;28;20345;-62
2024/01/10 05:56:33;;;;;;;14.73;9.38;;;-4.30;99.90;;;;;;5069657;28;20048;-62
2024/01/10 05:58:59;;;;;;;13.10;8.82;;;-4.40;99.90;;;;;;5070744;28;20059;-62
2024/01/10 06:01:25;;;;;;;14.40;10.52;;;-4.40;99.90;;;;;;5068085;28;20096;-62
2024/01/10 06:03:52;;;;;;;;;;;-4.40;99.90;;;;;;5067775;28;20067;-63
2024/01/10 06:06:19;;;;;;;13.38;8.77;;;-4.40;99.90;;;;;;5069094;28;20011;-62
2024/01/10 06:08:45;;;;;;;15.45;9.60;;;-4.40;99.90;;;;;;5069099;28;20491;-62
2024/01/10 06:11:11;;;;;;;14.65;10.18;;;-4.40;99.90;;;;;;5070414;28;20056;-62
2024/01/10 06:13:38;;;;;;;13.63;8.80;;;-4.40;99.90;;;;;;5068073;28;20335;-62
2024/01/10 06:16:04;;;;;;;15.20;9.82;;;-4.50;99.90;;;;;;5069453;28;20056;-61
2024/01/10 06:18:31;;;;;;;15.25;9.82;;;-4.50;99.90;;;;;;5068523;28;20045;-61
2024/01/10 06:20:57;;;;;;;14.55;10.35;;;-4.50;99.90;;;;;;5068038;28;20055;-62
2024/01/10 06:23:24;;;;;;;15.30;11.57;;;-4.50;99.90;;;;;;5074076;28;20138;-62
2024/01/10 06:25:50;;;;;;;14.93;10.32;;;-4.60;99.90;;;;;;5069957;28;20044;-62
2024/01/10 06:28:16;;;;;;;17.17;10.88;;;-4.70;99.90;;;;;;5067949;28;20090;-62
2024/01/10 06:30:42;;;;;;;15.75;10.68;;;-4.70;99.90;;;;;;5070233;28;20045;-61
2024/01/10 06:33:09;;;;;;;13.27;9.60;;;-4.70;99.90;;;;;;5068926;28;20060;-62
2024/01/10 06:35:35;;;;;;;15.93;10.32;;;-4.70;99.90;;;;;;5069988;28;20063;-62
2024/01/10 06:38:03;;;;;;;16.67;12.35;;;-4.70;99.90;;;;;;5068685;28;20343;-62
2024/01/10 06:40:30;;;;;;;15.93;10.75;;;-4.80;99.90;;;;;;5069824;28;20048;-62
2024/01/10 06:42:56;;;;;;;;;;;-4.80;99.90;;;;;;5069261;28;20527;-62
2024/01/10 06:45:22;;;;;;;16.95;10.90;;;-4.70;99.90;;;;;;5067892;28;19935;-62
2024/01/10 06:47:49;;;;;;;16.15;10.55;;;-4.70;99.90;;;;;;5068375;28;20032;-62
2024/01/10 06:50:15;;;;;;;15.60;10.75;;;-4.10;99.90;;;;;;5067687;28;20057;-63
2024/01/10 06:52:42;;;;;;;19.40;11.63;;;-4.70;99.90;;;;;;5067783;28;20075;-62
2024/01/10 06:55:08;;;;;;;17.55;11.35;;;-4.70;99.90;;;;;;5067924;28;20089;-62
2024/01/10 06:57:34;;;;;;;;;;;-4.70;99.90;;;;;;5070048;28;20048;-63
2024/01/10 07:00:03;;;;;;;17.08;10.85;;;-4.70;99.90;;;;;;5066782;28;19924;-62
2024/01/10 07:02:29;;;;;;;18.75;11.07;;;-4.70;99.90;;;;;;5067911;28;20048;-61
2024/01/10 07:04:56;;;;;;;19.35;11.45;;;-4.70;99.90;;;;;;5068687;28;20049;-63
2024/01/10 07:07:22;;;;;;;19.13;11.88;;;-4.70;99.90;;;;;;5069488;28;20048;-62
2024/01/10 07:09:49;;;;;;;16.55;12.48;;;-4.80;99.90;;;;;;5066958;28;20052;-62
2024/01/10 07:12:15;;;;;;;16.50;11.80;;;-4.80;99.90;;;;;;5067170;28;20049;-62
2024/01/10 07:14:41;;;;;;;;;;;-4.70;99.90;;;;;;5068340;28;20048;-61
2024/01/10 07:17:07;;;;;;;16.85;10.60;;;-4.70;99.90;;;;;;5069686;28;19977;-62
2024/01/10 07:19:34;;;;;;;17.70;12.25;;;-4.80;99.90;;;;;;5068020;28;20044;-62
2024/01/10 07:22:01;;;;;;;18.80;11.93;;;-4.80;99.90;;;;;;5068654;28;20131;-62
2024/01/10 07:24:27;;;;;;;15.80;10.45;;;-4.70;99.90;;;;;;5067898;28;20066;-62
2024/01/10 07:26:53;;;;;;;19.10;12.00;;;-4.60;99.90;;;;;;5068239;28;20074;-62
2024/01/10 07:29:19;;;;;;;16.35;10.98;;;-4.70;99.90;;;;;;5062477;28;20045;-62
2024/01/10 07:31:45;;;;;;;16.77;11.65;;;-4.70;99.90;;;;;;5069496;28;20052;-62
2024/01/10 07:34:12;;;;;;;16.77;11.57;;;-4.70;99.90;;;;;;5069977;28;20102;-61
2024/01/10 07:36:42;;;;;;;17.65;11.48;;;-4.70;99.90;;;;;;5069696;28;20060;-62
2024/01/10 07:39:08;;;;;;;16.90;11.75;;;-4.40;99.90;;;;;;5069455;28;20051;-62
2024/01/10 07:41:35;;;;;;;15.70;11.30;;;-4.60;99.90;;;;;;5069417;28;20052;-61
2024/01/10 07:44:03;;;;;;;17.08;11.57;;;-4.60;99.90;;;;;;5049896;28;20321;-62
2024/01/10 07:46:29;;;;;;;18.95;11.75;;;-4.60;99.90;;;;;;5083643;28;20469;-61
2024/01/10 07:48:55;;;;;;;17.20;10.50;;;-4.60;99.90;;;;;;5052939;28;20041;-62
2024/01/10 07:51:21;;;;;;;16.58;11.70;;;-4.60;99.90;;;;;;5069875;28;20060;-62
2024/01/10 07:53:48;;;;;;;17.08;12.57;;;-4.70;99.90;;;;;;5069334;28;20059;-61
2024/01/10 07:56:15;;;;;;;16.38;10.20;;;-4.80;99.90;;;;;;5070495;28;20079;-62
2024/01/10 07:58:41;;;;;;;;;;;-4.80;99.90;;;;;;5069614;28;20572;-63
2024/01/10 08:01:10;;;;;;;15.40;10.70;;;-4.90;99.90;;;;;;5069238;28;19981;-61
2024/01/10 08:03:37;;;;;;;15.70;10.35;;;-4.90;99.90;;;;;;5069267;28;20055;-61
2024/01/10 08:06:03;;;;;;;16.75;10.13;;;-4.80;99.90;;;;;;5069728;28;20044;-61
2024/01/10 08:08:29;;;;;;;15.55;10.93;;;-4.90;99.90;;;;;;5070449;28;20052;-62
2024/01/10 08:10:56;;;;;;;15.13;10.98;;;-4.80;99.90;;;;;;5070608;28;20545;-61
2024/01/10 08:13:22;;;;;;;15.95;9.75;;;-4.70;99.90;;;;;;5069116;28;20064;-61
2024/01/10 08:15:49;;;;;;;13.00;9.43;;;-4.80;99.90;;;;;;5069596;28;20053;-62
2024/01/10 08:18:15;;;;;;;;;;;-4.70;99.90;;;;;;5071923;28;20058;-61
2024/01/10 08:20:41;;;;;;;14.07;9.35;;;-4.70;99.90;;;;;;5069197;28;19920;-61
2024/01/10 08:23:08;;;;;;;14.00;9.38;;;-4.70;99.90;;;;;;5068587;28;20044;-62
2024/01/10 08:25:34;;;;;;;;;;;-5.10;99.90;;;;;;5072980;28;20056;-61
2024/01/10 08:28:00;;;;;;;13.73;10.55;;;-4.50;99.90;;;;;;5073659;28;20233;-61
2024/01/10 08:30:27;;;;;;;;;;;-4.40;99.90;;;;;;5074175;28;20368;-61
2024/01/10 08:32:53;;;;;;;12.73;8.40;;;-4.40;99.90;;;;;;5075614;28;19921;-61
2024/01/10 08:35:19;;;;;;;14.45;9.30;;;-4.30;99.90;;;;;;5074259;28;20113;-61
2024/01/10 08:37:46;;;;;;;11.98;8.60;;;-4.20;99.90;;;;;;5073581;28;20384;-62
2024/01/10 08:40:15;;;;;;;12.10;8.23;;;-4.10;99.90;;;;;;5072902;28;20114;-61
2024/01/10 08:42:42;;;;;;;13.95;9.27;;;-4.10;99.90;;;;;;5073896;28;20060;-61
2024/01/10 08:45:10;;;;;;;13.00;9.32;;;-4.00;99.90;;;;;;5073053;28;20049;-62
2024/01/10 08:47:37;;;;;;;14.55;9.50;;;-4.00;99.90;;;;;;5073450;28;20059;-60
2024/01/10 08:50:08;;;;;;;13.20;9.35;;;-3.90;99.90;;;;;;5074016;28;20388;-61
2024/01/10 08:52:38;;;;;;;11.57;9.02;;;-3.90;99.90;;;;;;5055979;28;20060;-60
2024/01/10 08:55:06;;;;;;;12.68;9.40;;;-3.80;99.90;;;;;;5073780;28;20037;-61
2024/01/10 08:57:32;;;;;;;14.15;9.32;;;-3.70;99.90;;;;;;5073578;28;20106;-62
2024/01/10 08:59:59;;;;;;;13.15;9.45;;;-3.70;99.90;;;;;;5073784;28;20056;-61
2024/01/10 09:02:27;;;;;;;12.45;9.48;;;-3.70;99.90;;;;;;5073303;28;20056;-61
2024/01/10 09:04:54;;;;;;;13.20;9.88;;;-3.70;99.90;;;;;;5073702;28;20452;-62
2024/01/10 09:07:21;;;;;;;13.07;10.27;;;-3.60;99.90;;;;;;5073006;28;20126;-63
2024/01/10 09:09:47;;;;;;;13.52;10.27;;;-3.60;99.90;;;;;;5073015;28;20044;-62
2024/01/10 09:12:14;;;;;;;12.00;8.48;;;-3.50;99.90;;;;;;5071927;28;20056;-62
2024/01/10 09:14:41;;;;;;;13.80;9.15;;;-3.40;99.90;;;;;;5073249;28;20044;-62
2024/01/10 09:17:07;;;;;;;12.65;8.88;;;-3.30;99.90;;;;;;5072384;28;20517;-61
2024/01/10 09:19:33;;;;;;;14.07;9.38;;;-3.30;99.90;;;;;;5071568;28;20055;-62
2024/01/10 09:21:59;;;;;;;12.02;9.80;;;-3.30;99.90;;;;;;5071633;28;20045;-63
2024/01/10 09:24:26;;;;;;;13.10;9.80;;;-3.20;99.90;;;;;;5071611;28;20416;-63
2024/01/10 09:26:53;;;;;;;;;;;-3.20;99.90;;;;;;5072511;28;20060;-63
2024/01/10 09:29:19;;;;;;;14.65;8.98;;;-3.10;99.90;;;;;;5072751;28;20279;-61
2024/01/10 09:31:49;;;;;;;13.55;8.77;;;-3.10;99.90;;;;;;5055564;28;20487;-62
2024/01/10 09:34:16;;;;;;;12.50;10.10;;;-3.10;99.90;;;;;;5071738;28;20064;-63
2024/01/10 09:36:42;;;;;;;13.23;10.63;;;-3.10;99.90;;;;;;5071352;28;20461;-63
2024/01/10 09:39:13;;;;;;;13.25;11.02;;;-3.00;99.90;;;;;;5069852;28;20514;-62
2024/01/10 09:41:50;;;;;;;12.43;9.43;;;-2.90;99.90;;;;;;5070801;28;20102;-63
2024/01/10 09:44:21;;;;;;;13.98;9.63;;;-2.80;99.90;;;;;;5069796;28;20048;-63
2024/01/10 09:46:54;;;;;;;13.40;9.43;;;-2.70;99.90;;;;;;5071985;28;20115;-62
2024/01/10 09:49:21;;;;;;;11.60;8.50;;;-2.70;99.90;;;;;;5071131;28;20052;-64
2024/01/10 09:51:49;;;;;;;14.27;11.27;;;-2.70;99.90;;;;;;5071746;28;20044;-63
2024/01/10 09:54:16;;;;;;;14.10;10.95;;;-2.70;99.90;;;;;;5070622;28;20525;-62
2024/01/10 09:56:42;;;;;;;15.15;8.68;;;-2.60;99.90;;;;;;5070863;28;20056;-62
2024/01/10 09:59:10;;;;;;;12.88;9.07;;;-2.70;99.90;;;;;;5071666;28;20102;-63
2024/01/10 10:01:40;;;;;;;11.80;9.70;;;-2.70;99.90;;;;;;5070582;28;20056;-62
2024/01/10 10:04:08;;;;;;;12.02;9.02;;;-2.60;99.90;;;;;;5071850;28;20048;-62
2024/01/10 10:06:34;;;;;;;12.70;9.02;;;-2.50;99.90;;;;;;5071732;28;20048;-62
2024/01/10 10:09:01;;;;;;;12.18;9.90;;;-2.00;99.90;;;;;;5071281;28;20044;-62
2024/01/10 10:11:27;;;;;;;12.98;9.38;;;-2.40;99.90;;;;;;5070683;28;20053;-61
2024/01/10 10:13:53;;;;;;;12.60;9.10;;;-2.30;99.90;;;;;;5069642;28;20063;-63
2024/01/10 10:16:25;;;;;;;12.95;10.18;;;-2.20;99.90;;;;;;5071419;28;20086;-63
2024/01/10 10:18:54;;;;;;;11.70;9.07;;;-1.90;99.90;;;;;;5067315;28;20329;-62
2024/01/10 10:21:20;;;;;;;13.10;9.30;;;-2.20;99.90;;;;;;5070207;28;20346;-62
2024/01/10 10:23:59;;;;;;;;;;;-2.10;99.90;;;;;;5071013;28;20076;-63
2024/01/10 10:26:27;;;;;;;12.55;10.38;;;-2.00;99.90;;;;;;5070223;28;19935;-62
2024/01/10 10:28:54;;;;;;;12.57;9.05;;;-2.00;99.90;;;;;;5069997;28;20233;-62
2024/01/10 10:31:20;;;;;;;13.48;8.82;;;-2.00;99.90;;;;;;5070357;28;20131;-63
2024/01/10 10:33:49;;;;;;;12.20;9.75;;;-2.00;99.90;;;;;;5071256;28;20056;-63
2024/01/10 10:36:15;;;;;;;15.00;8.48;;;-1.90;99.90;;;;;;5070837;28;20056;-64
2024/01/10 10:38:42;;;;;;;;;;;-1.90;99.90;;;;;;5071004;28;20041;-63
2024/01/10 10:41:12;;;;;;;12.95;10.25;;;-1.90;99.90;;;;;;5070046;28;19920;-63
2024/01/10 10:43:40;;;;;;;13.43;9.20;;;-1.80;99.90;;;;;;5070032;28;20044;-63
2024/01/10 10:46:09;;;;;;;12.57;8.75;;;-1.80;99.90;;;;;;5053263;28;20468;-62
2024/01/10 10:48:36;;;;;;;13.70;8.88;;;-1.70;99.90;;;;;;5068855;28;20121;-63
2024/01/10 10:51:10;;;;;;;13.77;8.07;;;-1.70;99.90;;;;;;5070970;28;20048;-61
2024/01/10 10:53:41;;;;;;;11.70;9.02;;;-1.70;99.90;;;;;;5069143;28;20040;-61
2024/01/10 10:56:08;;;;;;;12.00;7.97;;;-1.60;99.90;;;;;;5069876;28;20048;-63
2024/01/10 10:58:43;;;;;;;12.93;9.55;;;-1.50;99.90;;;;;;5066631;28;20061;-62
2024/01/10 11:01:12;;;;;;;13.55;8.63;;;-1.50;99.90;;;;;;5071066;28;20113;-62
2024/01/10 11:03:40;;;;;;;12.95;8.27;;;-1.50;99.90;;;;;;5070161;28;20040;-62
2024/01/10 11:06:07;;;;;;;14.73;10.45;;;-1.50;99.90;;;;;;5070639;28;20059;-62
2024/01/10 11:08:42;;;;;;;12.77;10.20;;;-1.40;99.90;;;;;;5069921;28;20061;-63
2024/01/10 11:11:34;;;;;;;12.02;9.82;;;-1.30;99.90;;;;;;5070564;28;20056;-63
2024/01/10 11:14:16;;;;;;;10.20;8.55;;;-1.30;99.90;;;;;;5070664;28;20467;-63
2024/01/10 11:17:14;;;;;;;12.80;9.57;;;-1.30;99.90;;;;;;5071580;28;20056;-63
2024/01/10 11:19:56;;;;;;;11.82;9.20;;;-1.20;99.90;;;;;;5071328;28;20105;-63
2024/01/10 11:22:47;;;;;;;12.30;8.73;;;-1.20;99.90;;;;;;5069762;28;20059;-63
2024/01/10 11:25:14;;;;;;;10.75;7.95;;;-1.10;99.90;;;;;;5071312;28;20357;-63
2024/01/10 11:27:41;;;;;;;9.75;8.00;;;-1.10;99.90;;;;;;5070221;28;20417;-62
2024/01/10 11:30:10;;;;;;;11.82;7.97;;;-1.00;99.90;;;;;;5069326;28;20051;-63
2024/01/10 11:32:37;;;;;;;11.38;8.80;;;-1.00;99.90;;;;;;5069321;28;20056;-63
2024/01/10 11:35:21;;;;;;;11.60;8.18;;;-1.00;99.90;;;;;;5070106;28;20060;-63
2024/01/10 11:37:50;;;;;;;;;;;-1.00;99.90;;;;;;5071429;28;20063;-63
2024/01/10 11:40:44;;;;;;;11.10;8.32;;;-0.90;99.90;;;;;;5069783;28;19920;-63
2024/01/10 11:43:13;;;;;;;11.25;8.13;;;-0.90;99.90;;;;;;5069796;28;20074;-63
2024/01/10 11:45:51;;;;;;;12.50;9.02;;;-0.80;99.90;;;;;;5069598;28;20346;-62
2024/01/10 11:48:25;;;;;;;;;;;-0.70;99.90;;;;;;5069337;28;20075;-63
2024/01/10 11:50:52;;;;;;;13.32;7.25;;;-0.70;99.90;;;;;;5071411;28;19920;-62
2024/01/10 11:53:39;;;;;;;10.70;7.68;;;-0.70;99.90;;;;;;5069756;28;20053;-63
2024/01/10 11:56:15;;;;;;;10.25;6.90;;;-0.60;99.90;;;;;;5070494;28;20044;-62
2024/01/10 11:59:08;;;;;;;11.68;7.65;;;-0.50;99.90;;;;;;5071087;28;20053;-62
2024/01/10 12:01:36;;;;;;;11.40;7.35;;;-0.40;99.90;;;;;;5066837;28;20413;-63
2024/01/10 12:04:03;;;;;;;11.10;7.25;;;-0.50;99.90;;;;;;5074877;28;20059;-61
2024/01/10 12:06:31;;;;;;;9.65;6.72;;;-0.50;99.90;;;;;;5074601;28;20079;-62
2024/01/10 12:08:57;;;;;;;11.57;6.85;;;-0.40;99.90;;;;;;5074443;28;20056;-63
2024/01/10 12:11:24;;;;;;;8.95;6.78;;;-0.40;99.90;;;;;;5074713;28;20056;-62
2024/01/10 12:13:50;;;;;;;;;;;-0.40;99.90;;;;;;5073900;28;20079;-63
2024/01/10 12:16:17;;;;;;;10.65;6.63;;;-0.40;99.90;;;;;;5073343;28;19956;-64
2024/01/10 12:18:44;;;;;;;10.93;6.47;;;-0.40;99.90;;;;;;5073344;28;20139;-62
2024/01/10 12:21:12;;;;;;;12.75;7.55;;;-0.40;99.90;;;;;;5074554;28;20052;-62
2024/01/10 12:23:38;;;;;;;11.45;6.57;;;-0.30;99.90;;;;;;5073177;28;20048;-62
2024/01/10 12:26:13;;;;;;;13.75;8.15;;;-0.30;99.90;;;;;;5056385;28;20052;-61
2024/01/10 12:28:40;;;;;;;11.75;7.13;;;-0.20;99.90;;;;;;5073423;28;20528;-62
2024/01/10 12:31:09;;;;;;;10.73;6.57;;;-0.20;99.90;;;;;;5074394;28;20049;-63
2024/01/10 12:33:42;;;;;;;11.70;6.95;;;-0.20;99.90;;;;;;5073298;28;20356;-62
2024/01/10 12:36:09;;;;;;;9.23;6.57;;;-0.20;99.90;;;;;;5073925;28;20064;-63
2024/01/10 12:38:38;;;;;;;12.57;7.43;;;-0.20;99.90;;;;;;5073755;28;20056;-61
2024/01/10 12:41:05;;;;;;;10.23;7.25;;;-0.10;99.90;;;;;;5072361;28;20044;-62
2024/01/10 12:43:31;;;;;;;13.43;7.07;;;-0.10;99.90;;;;;;5072624;28;20056;-62
2024/01/10 12:46:08;;;;;;;9.75;6.47;;;-0.10;99.90;;;;;;5073157;28;20056;-63